createdAt,value
2022-08-22T00:02:00.551Z,99.90
2022-08-22T00:02:45.054Z,80.00
2022-08-22T00:02:48.332Z,97.00
2022-08-22T00:02:49.197Z,99.90
2022-08-22T00:02:53.826Z,99.90
2022-08-22T00:03:10.105Z,78.30
2022-08-22T00:05:22.373Z,99.90
2022-08-22T00:08:27.848Z,99.90
2022-08-22T00:11:33.120Z,99.90
2022-08-22T00:14:53.397Z,99.90
2022-08-22T00:17:49.209Z,99.90
2022-08-22T00:20:28.203Z,99.90
2022-08-22T00:23:53.841Z,99.90
2022-08-22T00:26:50.162Z,99.90
2022-08-22T00:29:41.914Z,99.90
2022-08-22T00:32:28.035Z,99.90
2022-08-22T00:35:32.929Z,99.90
2022-08-22T00:38:28.613Z,99.90
2022-08-22T00:41:41.823Z,99.90
2022-08-22T00:45:08.797Z,99.90
2022-08-22T00:47:38.537Z,99.90
2022-08-22T00:50:48.579Z,99.90
2022-08-22T00:53:39.861Z,99.90
2022-08-22T00:57:18.155Z,99.90
2022-08-22T01:00:05.413Z,99.90
2022-08-22T01:02:52.697Z,99.90
2022-08-22T01:06:22.473Z,99.90
2022-08-22T01:09:29.766Z,99.90
2022-08-22T01:12:49.354Z,99.90
2022-08-22T01:15:29.157Z,99.90
2022-08-22T01:18:34.414Z,99.90
2022-08-22T01:21:24.214Z,99.90
2022-08-22T01:24:37.568Z,99.90
2022-08-22T01:28:47.371Z,99.90
2022-08-22T01:32:28.995Z,99.90
2022-08-22T01:35:36.651Z,99.90
2022-08-22T01:38:41.995Z,99.90
2022-08-22T01:41:43.647Z,99.90
2022-08-22T01:45:16.359Z,99.90
2022-08-22T01:48:30.586Z,99.90
2022-08-22T01:51:26.702Z,99.90
2022-08-22T01:54:21.561Z,99.90
2022-08-22T01:56:49.215Z,99.90
2022-08-22T01:59:36.378Z,99.90
2022-08-22T02:03:06.015Z,99.90
2022-08-22T02:06:14.613Z,99.90
2022-08-22T02:09:08.089Z,99.90
2022-08-22T02:11:55.792Z,99.90
2022-08-22T02:14:32.716Z,99.90
2022-08-22T02:17:32.134Z,99.90
2022-08-22T02:20:24.236Z,99.90
2022-08-22T02:23:24.958Z,99.90
2022-08-22T02:26:11.119Z,99.90
2022-08-22T02:29:08.746Z,99.90
2022-08-22T02:32:05.863Z,99.90
2022-08-22T02:35:05.133Z,99.90
2022-08-22T02:38:37.052Z,99.90
2022-08-22T02:41:48.084Z,99.90
2022-08-22T02:44:35.555Z,99.90
2022-08-22T02:47:32.995Z,99.90
2022-08-22T02:50:52.136Z,99.90
2022-08-22T02:54:19.168Z,99.90
2022-08-22T02:57:14.682Z,99.90
2022-08-22T03:00:48.281Z,99.90
2022-08-22T03:03:28.768Z,99.90
2022-08-22T03:06:52.828Z,99.90
2022-08-22T03:09:33.388Z,99.90
2022-08-22T03:12:48.745Z,99.90
2022-08-22T03:15:52.849Z,99.90
2022-08-22T03:18:53.673Z,99.90
2022-08-22T03:22:01.184Z,99.90
2022-08-22T03:25:01.384Z,99.90
2022-08-22T03:27:55.641Z,99.90
2022-08-22T03:30:42.063Z,99.90
2022-08-22T03:33:17.277Z,99.90
2022-08-22T03:35:46.925Z,99.90
2022-08-22T03:38:28.461Z,99.90
2022-08-22T03:41:49.901Z,99.90
2022-08-22T03:45:11.967Z,99.90
2022-08-22T03:48:20.406Z,99.90
2022-08-22T03:51:14.928Z,99.90
2022-08-22T03:54:30.665Z,99.90
2022-08-22T03:58:27.309Z,99.90
2022-08-22T04:01:35.210Z,99.90
2022-08-22T04:04:11.324Z,99.90
2022-08-22T04:07:33.440Z,99.90
2022-08-22T04:10:50.293Z,99.90
2022-08-22T04:13:59.630Z,99.90
2022-08-22T04:16:26.454Z,99.90
2022-08-22T04:19:38.606Z,99.90
2022-08-22T04:22:36.113Z,99.90
2022-08-22T04:25:19.178Z,99.90
2022-08-22T04:28:34.000Z,99.90
2022-08-22T04:31:12.465Z,99.90
2022-08-22T04:34:22.448Z,99.90
2022-08-22T04:37:30.265Z,99.90
2022-08-22T04:40:16.859Z,99.90
2022-08-22T04:43:41.278Z,99.90
2022-08-22T04:46:39.353Z,99.90
2022-08-22T04:49:26.468Z,99.90
2022-08-22T04:52:40.746Z,99.90
2022-08-22T04:55:33.202Z,99.90
2022-08-22T04:58:36.339Z,99.90
2022-08-22T05:01:13.564Z,99.90
2022-08-22T05:04:03.439Z,99.90
2022-08-22T05:06:40.030Z,99.90
2022-08-22T05:09:20.856Z,99.90
2022-08-22T05:12:00.122Z,99.90
2022-08-22T05:14:47.138Z,99.90
2022-08-22T05:17:24.018Z,99.90
2022-08-22T05:19:58.802Z,99.90
2022-08-22T05:22:36.577Z,99.90
2022-08-22T05:25:15.031Z,99.90
2022-08-22T05:28:08.203Z,99.90
2022-08-22T05:30:38.230Z,99.90
2022-08-22T05:33:29.865Z,99.90
2022-08-22T05:36:11.799Z,99.90
2022-08-22T05:38:52.235Z,99.90
2022-08-22T05:41:28.291Z,99.90
2022-08-22T05:43:55.861Z,99.90
2022-08-22T05:47:05.265Z,99.90
2022-08-22T05:50:15.079Z,99.90
2022-08-22T05:53:09.800Z,99.90
2022-08-22T05:56:18.361Z,99.90
2022-08-22T05:59:02.833Z,99.90
2022-08-22T06:02:07.092Z,99.90
2022-08-22T06:04:49.972Z,99.90
2022-08-22T06:07:26.531Z,99.90
2022-08-22T06:10:48.237Z,99.90
2022-08-22T06:13:41.426Z,99.90
2022-08-22T06:16:48.859Z,98.70
2022-08-22T06:19:20.218Z,96.90
2022-08-22T06:21:52.269Z,96.10
2022-08-22T06:24:27.566Z,94.70
2022-08-22T06:27:10.264Z,93.90
2022-08-22T06:29:48.815Z,92.80
2022-08-22T06:32:58.780Z,92.10
2022-08-22T06:36:07.708Z,91.60
2022-08-22T06:39:34.504Z,90.90
2022-08-22T06:42:18.530Z,90.10
2022-08-22T06:44:57.314Z,86.10
2022-08-22T06:47:50.218Z,83.00
2022-08-22T06:50:38.358Z,83.30
2022-08-22T06:53:13.817Z,81.80
2022-08-22T06:55:52.301Z,81.50
2022-08-22T06:58:38.361Z,80.50
2022-08-22T07:01:25.011Z,78.80
2022-08-22T07:04:03.125Z,78.10
2022-08-22T07:06:41.941Z,76.90
2022-08-22T07:09:25.589Z,75.80
2022-08-22T07:11:57.824Z,74.80
2022-08-22T07:14:51.201Z,73.70
2022-08-22T07:17:25.534Z,71.00
2022-08-22T07:20:42.044Z,68.00
2022-08-22T07:23:44.833Z,65.40
2022-08-22T07:26:48.682Z,65.40
2022-08-22T07:29:44.525Z,64.90
2022-08-22T07:32:34.809Z,64.40
2022-08-22T07:35:19.889Z,63.90
2022-08-22T07:38:13.794Z,62.90
2022-08-22T07:41:09.518Z,62.40
2022-08-22T07:43:46.952Z,63.20
2022-08-22T07:46:43.398Z,61.90
2022-08-22T07:49:38.173Z,61.20
2022-08-22T07:52:13.613Z,61.40
2022-08-22T07:54:50.216Z,60.80
2022-08-22T07:57:31.582Z,61.60
2022-08-22T08:00:04.571Z,60.70
2022-08-22T08:04:14.636Z,58.70
2022-08-22T08:06:42.162Z,59.10
2022-08-22T08:09:17.482Z,58.70
2022-08-22T08:11:49.083Z,57.40
2022-08-22T08:14:17.710Z,57.60
2022-08-22T08:17:17.375Z,56.20
2022-08-22T08:19:47.254Z,56.80
2022-08-22T08:22:28.382Z,56.50
2022-08-22T08:25:00.138Z,56.10
2022-08-22T08:27:55.831Z,55.30
2022-08-22T08:31:08.107Z,54.60
2022-08-22T08:33:43.996Z,54.40
2022-08-22T08:36:52.435Z,55.30
2022-08-22T08:39:35.535Z,55.40
2022-08-22T08:43:02.535Z,54.90
2022-08-22T08:46:38.489Z,54.70
2022-08-22T08:49:56.195Z,54.10
2022-08-22T08:53:25.071Z,53.70
2022-08-22T08:56:19.613Z,51.60
2022-08-22T08:59:22.472Z,51.80
2022-08-22T09:02:04.347Z,52.00
2022-08-22T09:05:58.391Z,52.40
2022-08-22T09:09:01.382Z,53.20
2022-08-22T09:13:11.326Z,53.80
2022-08-22T09:16:14.999Z,54.30
2022-08-22T09:19:27.080Z,53.90
2022-08-22T09:22:49.941Z,53.50
2022-08-22T09:25:55.041Z,52.80
2022-08-22T09:28:45.124Z,53.00
2022-08-22T09:31:48.149Z,51.90
2022-08-22T09:34:39.763Z,53.10
2022-08-22T09:37:27.575Z,52.90
2022-08-22T09:40:28.639Z,51.50
2022-08-22T09:43:21.270Z,50.20
2022-08-22T09:46:20.435Z,48.00
2022-08-22T09:49:17.463Z,46.10
2022-08-22T09:52:33.857Z,45.20
2022-08-22T09:55:40.540Z,44.00
2022-08-22T09:58:59.880Z,44.10
2022-08-22T10:01:57.506Z,43.90
2022-08-22T10:04:59.225Z,43.70
2022-08-22T10:08:11.503Z,42.60
2022-08-22T10:11:20.920Z,40.40
2022-08-22T10:14:31.085Z,42.00
2022-08-22T10:17:36.840Z,42.10
2022-08-22T10:20:47.651Z,40.70
2022-08-22T10:23:46.977Z,40.10
2022-08-22T10:26:38.400Z,39.80
2022-08-22T10:29:29.797Z,38.10
2022-08-22T10:32:20.424Z,37.70
2022-08-22T10:35:17.536Z,36.70
2022-08-22T10:38:03.028Z,36.60
2022-08-22T10:40:57.304Z,36.90
2022-08-22T10:43:56.501Z,37.10
2022-08-22T10:47:02.284Z,38.70
2022-08-22T10:49:46.337Z,36.50
2022-08-22T10:52:40.009Z,36.80
2022-08-22T10:55:19.597Z,36.50
2022-08-22T10:58:12.053Z,34.60
2022-08-22T11:01:01.924Z,35.00
2022-08-22T11:04:45.811Z,37.30
2022-08-22T11:07:31.633Z,38.20
2022-08-22T11:10:40.729Z,38.30
2022-08-22T11:13:46.454Z,37.90
2022-08-22T11:16:56.294Z,36.40
2022-08-22T11:19:59.573Z,35.60
2022-08-22T11:23:12.463Z,36.80
2022-08-22T11:26:49.471Z,37.80
2022-08-22T11:29:48.778Z,36.90
2022-08-22T11:33:06.843Z,35.70
2022-08-22T11:36:11.914Z,34.20
2022-08-22T11:39:23.170Z,34.70
2022-08-22T11:42:06.635Z,33.40
2022-08-22T11:45:00.688Z,32.80
2022-08-22T11:47:44.411Z,32.30
2022-08-22T11:50:42.385Z,33.60
2022-08-22T11:53:36.031Z,33.80
2022-08-22T11:56:53.146Z,35.40
2022-08-22T11:59:52.947Z,35.30
2022-08-22T12:02:57.539Z,33.60
2022-08-22T12:05:42.711Z,34.70
2022-08-22T12:08:40.647Z,35.40
2022-08-22T12:11:25.251Z,35.80
2022-08-22T12:14:17.575Z,36.70
2022-08-22T12:17:50.901Z,38.40
2022-08-22T12:20:21.843Z,39.20
2022-08-22T12:23:48.824Z,37.20
2022-08-22T12:27:08.503Z,36.30
2022-08-22T12:30:29.847Z,36.10
2022-08-22T12:33:38.364Z,37.00
2022-08-22T12:36:23.076Z,36.80
2022-08-22T12:39:41.092Z,35.40
2022-08-22T12:42:48.808Z,34.80
2022-08-22T12:45:53.272Z,34.70
2022-08-22T12:48:54.817Z,34.40
2022-08-22T12:51:24.480Z,33.20
2022-08-22T12:54:15.972Z,33.70
2022-08-22T12:57:53.996Z,33.70
2022-08-22T13:00:45.652Z,33.70
2022-08-22T13:03:34.820Z,33.00
2022-08-22T13:06:35.201Z,32.80
2022-08-22T13:09:19.712Z,32.90
2022-08-22T13:12:00.206Z,33.50
2022-08-22T13:14:34.701Z,33.60
2022-08-22T13:17:25.173Z,33.10
2022-08-22T13:20:10.678Z,32.60
2022-08-22T13:22:45.644Z,32.00
2022-08-22T13:25:25.865Z,31.60
2022-08-22T13:28:10.277Z,32.50
2022-08-22T13:30:42.181Z,33.50
2022-08-22T13:33:38.921Z,33.90
2022-08-22T13:36:18.125Z,35.20
2022-08-22T13:39:14.552Z,36.30
2022-08-22T13:42:03.485Z,37.80
2022-08-22T13:44:52.333Z,37.60
2022-08-22T13:47:26.709Z,37.00
2022-08-22T13:50:23.156Z,35.80
2022-08-22T13:53:49.993Z,35.10
2022-08-22T13:57:03.770Z,34.00
2022-08-22T13:59:50.882Z,35.00
2022-08-22T14:02:34.754Z,36.20
2022-08-22T14:05:14.026Z,34.60
2022-08-22T14:08:01.447Z,33.50
2022-08-22T14:10:35.898Z,32.50
2022-08-22T14:13:11.870Z,31.70
2022-08-22T14:15:45.255Z,34.10
2022-08-22T14:18:45.634Z,36.10
2022-08-22T14:21:33.474Z,35.90
2022-08-22T14:24:45.430Z,35.90
2022-08-22T14:27:28.617Z,35.90
2022-08-22T14:30:12.844Z,35.10
2022-08-22T14:33:14.094Z,34.80
2022-08-22T14:35:52.915Z,33.30
2022-08-22T14:38:32.091Z,32.30
2022-08-22T14:41:55.653Z,31.90
2022-08-22T14:44:36.509Z,31.90
2022-08-22T14:47:51.044Z,31.40
2022-08-22T14:50:43.926Z,30.80
2022-08-22T14:53:25.680Z,32.10
2022-08-22T14:56:21.856Z,32.70
2022-08-22T14:59:08.204Z,33.20
2022-08-22T15:02:01.069Z,33.30
2022-08-22T15:04:54.856Z,33.90
2022-08-22T15:07:34.907Z,35.80
2022-08-22T15:10:31.697Z,36.40
2022-08-22T15:13:08.023Z,37.20
2022-08-22T15:15:54.179Z,38.20
2022-08-22T15:18:28.006Z,39.20
2022-08-22T15:21:12.369Z,37.70
2022-08-22T15:23:46.980Z,36.30
2022-08-22T15:26:32.571Z,36.50
2022-08-22T15:29:21.406Z,36.50
2022-08-22T15:31:57.367Z,36.90
2022-08-22T15:34:45.891Z,37.90
2022-08-22T15:37:16.432Z,38.60
2022-08-22T15:40:30.811Z,39.20
2022-08-22T15:43:35.085Z,40.20
2022-08-22T15:46:38.143Z,41.10
2022-08-22T15:49:28.761Z,42.20
2022-08-22T15:52:21.920Z,42.50
2022-08-22T15:55:18.020Z,43.40
2022-08-22T15:58:12.907Z,43.90
2022-08-22T16:01:02.573Z,44.90
2022-08-22T16:03:38.507Z,46.10
2022-08-22T16:06:11.207Z,45.70
2022-08-22T16:08:54.591Z,45.60
2022-08-22T16:11:33.725Z,45.00
2022-08-22T16:14:35.403Z,44.40
2022-08-22T16:17:40.471Z,43.50
2022-08-22T16:20:19.894Z,42.80
2022-08-22T16:22:56.452Z,42.50
2022-08-22T16:25:46.237Z,42.60
2022-08-22T16:28:58.135Z,42.60
2022-08-22T16:31:41.408Z,42.70
2022-08-22T16:34:17.217Z,42.10
2022-08-22T16:37:13.515Z,40.80
2022-08-22T16:40:15.266Z,40.80
2022-08-22T16:42:51.208Z,41.30
2022-08-22T16:45:34.475Z,42.30
2022-08-22T16:48:31.619Z,42.60
2022-08-22T16:51:13.532Z,42.70
2022-08-22T16:53:45.857Z,43.60
2022-08-22T16:57:00.397Z,44.20
2022-08-22T16:59:54.360Z,44.90
2022-08-22T17:03:03.359Z,46.00
2022-08-22T17:06:06.874Z,47.20
2022-08-22T17:09:23.508Z,48.00
2022-08-22T17:12:50.740Z,47.90
2022-08-22T17:15:33.800Z,47.00
2022-08-22T17:18:50.232Z,46.40
2022-08-22T17:21:32.064Z,46.60
2022-08-22T17:24:32.185Z,46.60
2022-08-22T17:27:24.856Z,46.10
2022-08-22T17:30:20.438Z,46.50
2022-08-22T17:33:11.465Z,47.10
2022-08-22T17:36:27.163Z,47.60
2022-08-22T17:39:47.087Z,47.40
2022-08-22T17:42:56.780Z,48.20
2022-08-22T17:45:49.823Z,48.70
2022-08-22T17:48:38.825Z,49.40
2022-08-22T17:51:45.439Z,50.00
2022-08-22T17:54:33.229Z,50.60
2022-08-22T17:57:32.213Z,51.00
2022-08-22T18:00:30.479Z,51.80
2022-08-22T18:03:08.981Z,53.00
2022-08-22T18:06:21.629Z,54.50
2022-08-22T18:09:15.396Z,57.30
2022-08-22T18:11:57.824Z,58.90
2022-08-22T18:14:48.813Z,60.50
2022-08-22T18:17:41.510Z,61.70
2022-08-22T18:21:04.197Z,63.00
2022-08-22T18:23:40.842Z,64.00
2022-08-22T18:26:38.667Z,65.00
2022-08-22T18:29:17.299Z,65.50
2022-08-22T18:31:53.198Z,66.20
2022-08-22T18:34:56.161Z,67.00
2022-08-22T18:37:36.770Z,67.40
2022-08-22T18:40:22.215Z,68.40
2022-08-22T18:43:06.559Z,69.10
2022-08-22T18:45:48.483Z,70.10
2022-08-22T18:48:59.238Z,70.10
2022-08-22T18:51:38.683Z,70.50
2022-08-22T18:54:06.750Z,71.00
2022-08-22T18:57:48.599Z,71.50
2022-08-22T19:00:22.581Z,71.90
2022-08-22T19:03:35.880Z,72.70
2022-08-22T19:06:15.464Z,73.30
2022-08-22T19:09:09.087Z,73.90
2022-08-22T19:12:14.515Z,74.20
2022-08-22T19:15:24.063Z,74.50
2022-08-22T19:18:23.112Z,75.00
2022-08-22T19:21:46.257Z,75.70
2022-08-22T19:25:16.770Z,75.90
2022-08-22T19:28:08.888Z,76.40
2022-08-22T19:31:22.281Z,76.60
2022-08-22T19:34:25.368Z,77.30
2022-08-22T19:37:11.441Z,77.90
2022-08-22T19:40:08.131Z,78.70
2022-08-22T19:42:41.408Z,80.30
2022-08-22T19:45:27.029Z,81.60
2022-08-22T19:48:14.594Z,83.10
2022-08-22T19:50:43.753Z,83.60
2022-08-22T19:54:01.298Z,83.70
2022-08-22T19:57:06.795Z,83.50
2022-08-22T20:00:09.870Z,83.40
2022-08-22T20:03:32.805Z,84.00
2022-08-22T20:06:44.052Z,84.00
2022-08-22T20:09:57.303Z,84.70
2022-08-22T20:13:07.692Z,85.90
2022-08-22T20:16:23.384Z,88.00
2022-08-22T20:19:17.346Z,89.90
2022-08-22T20:21:58.514Z,90.90
2022-08-22T20:24:44.358Z,91.90
2022-08-22T20:27:22.471Z,92.90
2022-08-22T20:30:18.868Z,93.70
2022-08-22T20:33:23.862Z,94.20
2022-08-22T20:36:06.520Z,94.90
2022-08-22T20:39:02.818Z,95.60
2022-08-22T20:41:48.984Z,95.90
2022-08-22T20:44:24.049Z,96.60
2022-08-22T20:47:09.943Z,97.20
2022-08-22T20:49:52.248Z,98.40
2022-08-22T20:52:38.823Z,98.60
2022-08-22T20:55:21.104Z,99.20
2022-08-22T20:57:59.189Z,99.20
2022-08-22T21:00:45.718Z,99.00
2022-08-22T21:03:41.338Z,98.80
2022-08-22T21:06:35.919Z,98.60
2022-08-22T21:09:39.778Z,99.40
2022-08-22T21:12:09.299Z,99.60
2022-08-22T21:14:44.392Z,99.90
2022-08-22T21:17:34.371Z,99.90
2022-08-22T21:20:22.885Z,99.90
2022-08-22T21:22:50.558Z,99.90
2022-08-22T21:25:17.896Z,99.90
2022-08-22T21:27:48.392Z,99.90
2022-08-22T21:30:28.326Z,99.90
2022-08-22T21:32:56.638Z,99.90
2022-08-22T21:35:32.850Z,99.90
2022-08-22T21:38:01.881Z,99.90
2022-08-22T21:40:35.839Z,99.90
2022-08-22T21:43:31.703Z,99.90
2022-08-22T21:46:03.317Z,99.90
2022-08-22T21:48:57.343Z,99.90
2022-08-22T21:51:45.698Z,99.90
2022-08-22T21:54:32.716Z,99.90
2022-08-22T21:57:15.951Z,99.90
2022-08-22T21:59:59.550Z,99.90
2022-08-22T22:02:42.427Z,99.90
2022-08-22T22:05:17.634Z,99.90
2022-08-22T22:07:47.545Z,99.90
2022-08-22T22:10:20.170Z,99.90
2022-08-22T22:12:53.011Z,99.90
2022-08-22T22:15:28.273Z,99.90
2022-08-22T22:17:56.005Z,99.90
2022-08-22T22:20:26.102Z,99.90
2022-08-22T22:22:55.042Z,99.90
2022-08-22T22:25:38.768Z,99.90
2022-08-22T22:28:30.348Z,99.90
2022-08-22T22:30:57.484Z,99.90
2022-08-22T22:33:34.351Z,99.90
2022-08-22T22:36:13.407Z,99.90
2022-08-22T22:38:41.193Z,99.90
2022-08-22T22:41:08.692Z,99.90
2022-08-22T22:43:35.951Z,99.90
2022-08-22T22:46:04.092Z,99.90
2022-08-22T22:48:32.471Z,99.90
2022-08-22T22:50:59.387Z,99.90
2022-08-22T22:53:33.736Z,99.90
2022-08-22T22:56:12.552Z,99.90
2022-08-22T22:58:41.417Z,99.90
2022-08-22T23:01:16.756Z,99.90
2022-08-22T23:03:46.179Z,99.90
2022-08-22T23:06:22.498Z,99.90
2022-08-22T23:08:49.964Z,99.90
2022-08-22T23:11:27.072Z,99.90
2022-08-22T23:13:54.630Z,99.90
2022-08-22T23:16:28.612Z,99.90
2022-08-22T23:18:55.995Z,99.90
2022-08-22T23:21:29.984Z,99.90
2022-08-22T23:24:00.107Z,99.90
2022-08-22T23:26:28.576Z,99.90
2022-08-22T23:28:57.592Z,99.90
2022-08-22T23:31:42.620Z,99.90
2022-08-22T23:34:15.443Z,99.90
2022-08-22T23:36:46.792Z,99.90
2022-08-22T23:39:16.458Z,99.90
2022-08-22T23:41:46.538Z,99.90
2022-08-22T23:44:17.565Z,99.90
2022-08-22T23:46:44.860Z,99.90
2022-08-22T23:49:13.153Z,99.90
2022-08-22T23:51:43.438Z,99.90
2022-08-22T23:54:11.101Z,99.90
2022-08-22T23:56:47.269Z,99.90
2022-08-22T23:59:20.917Z,99.90
